createdAt,value
2022-11-23T00:01:29.979Z,19.65
2022-11-23T00:04:00.604Z,19.92
2022-11-23T00:06:28.337Z,19.58
2022-11-23T00:08:56.502Z,20.38
2022-11-23T00:11:25.613Z,20.80
2022-11-23T00:13:54.447Z,20.77
2022-11-23T00:16:25.150Z,21.25
2022-11-23T00:18:58.005Z,20.95
2022-11-23T00:21:27.913Z,20.17
2022-11-23T00:23:55.621Z,20.50
2022-11-23T00:26:23.342Z,20.60
2022-11-23T00:28:50.958Z,19.83
2022-11-23T00:31:20.720Z,19.40
2022-11-23T00:33:53.057Z,20.05
2022-11-23T00:36:21.722Z,19.48
2022-11-23T00:38:50.560Z,20.48
2022-11-23T00:41:21.277Z,20.15
2022-11-23T00:43:49.539Z,20.83
2022-11-23T00:46:22.522Z,20.05
2022-11-23T00:48:52.609Z,19.08
2022-11-23T00:51:26.701Z,19.27
2022-11-23T00:53:54.848Z,19.02
2022-11-23T00:56:25.327Z,20.00
2022-11-23T00:58:54.685Z,20.00
2022-11-23T01:01:26.000Z,20.27
2022-11-23T01:03:56.166Z,20.00
2022-11-23T01:06:29.364Z,17.92
2022-11-23T01:09:09.664Z,19.33
2022-11-23T01:11:37.329Z,19.30
2022-11-23T01:14:04.972Z,19.13
2022-11-23T01:16:37.942Z,19.10
2022-11-23T01:19:08.657Z,19.27
2022-11-23T01:21:37.007Z,18.95
2022-11-23T01:24:18.990Z,18.70
2022-11-23T01:26:51.672Z,18.52
2022-11-23T01:29:21.910Z,19.20
2022-11-23T01:31:49.629Z,18.80
2022-11-23T01:34:17.567Z,18.30
2022-11-23T01:36:45.939Z,17.67
2022-11-23T01:39:14.202Z,18.27
2022-11-23T01:41:44.086Z,18.40
2022-11-23T01:44:29.934Z,18.20
2022-11-23T01:47:00.122Z,17.63
2022-11-23T01:49:34.062Z,18.60
2022-11-23T01:52:08.134Z,18.17
2022-11-23T01:54:55.003Z,18.27
2022-11-23T01:57:39.325Z,19.98
2022-11-23T02:00:09.230Z,19.20
2022-11-23T02:02:57.025Z,19.42
2022-11-23T02:05:31.981Z,19.85
2022-11-23T02:08:01.726Z,20.15
2022-11-23T02:10:31.662Z,19.90
2022-11-23T02:13:08.371Z,20.00
2022-11-23T02:15:36.971Z,20.80
2022-11-23T02:18:10.654Z,20.83
2022-11-23T02:20:39.155Z,20.40
2022-11-23T02:23:26.680Z,20.25
2022-11-23T02:26:17.209Z,19.67
2022-11-23T02:29:12.129Z,20.27
2022-11-23T02:31:39.852Z,19.25
2022-11-23T02:34:07.717Z,19.88
2022-11-23T02:36:39.670Z,20.30
2022-11-23T02:39:17.866Z,20.38
2022-11-23T02:41:52.011Z,20.30
2022-11-23T02:44:44.449Z,19.80
2022-11-23T02:47:14.550Z,20.05
2022-11-23T02:49:42.837Z,20.85
2022-11-23T02:52:10.514Z,20.63
2022-11-23T02:54:38.291Z,20.17
2022-11-23T02:57:06.571Z,20.60
2022-11-23T02:59:34.723Z,20.05
2022-11-23T03:02:05.007Z,20.40
2022-11-23T03:04:32.896Z,18.80
2022-11-23T03:07:00.884Z,20.55
2022-11-23T03:09:28.768Z,21.10
2022-11-23T03:11:58.850Z,20.77
2022-11-23T03:14:28.999Z,20.70
2022-11-23T03:19:31.758Z,20.98
2022-11-23T03:21:59.728Z,20.70
2022-11-23T03:24:32.170Z,21.67
2022-11-23T03:27:02.436Z,20.65
2022-11-23T03:29:30.545Z,20.42
2022-11-23T03:32:01.101Z,20.00
2022-11-23T03:34:28.780Z,20.88
2022-11-23T03:36:57.111Z,21.58
2022-11-23T03:39:26.244Z,19.77
2022-11-23T03:42:12.365Z,20.45
2022-11-23T03:44:40.044Z,21.02
2022-11-23T03:47:07.742Z,21.00
2022-11-23T03:49:36.682Z,20.15
2022-11-23T03:52:04.659Z,21.80
2022-11-23T03:54:32.349Z,21.15
2022-11-23T03:57:00.564Z,21.80
2022-11-23T03:59:28.203Z,22.38
2022-11-23T04:01:56.356Z,21.90
2022-11-23T04:04:27.898Z,21.48
2022-11-23T04:07:18.267Z,22.33
2022-11-23T04:09:51.454Z,22.15
2022-11-23T04:12:43.847Z,21.92
2022-11-23T04:15:12.028Z,21.23
2022-11-23T04:17:39.894Z,22.08
2022-11-23T04:20:08.750Z,20.92
2022-11-23T04:22:37.350Z,21.65
2022-11-23T04:25:05.457Z,20.95
2022-11-23T04:27:33.268Z,21.73
2022-11-23T04:30:01.035Z,21.52
2022-11-23T04:32:29.899Z,21.30
2022-11-23T04:34:57.646Z,21.67
2022-11-23T04:37:25.360Z,21.55
2022-11-23T04:39:53.677Z,21.50
2022-11-23T04:42:27.711Z,22.15
2022-11-23T04:44:59.107Z,22.48
2022-11-23T04:47:27.199Z,22.08
2022-11-23T04:49:56.955Z,22.60
2022-11-23T04:52:24.629Z,22.02
2022-11-23T04:54:52.326Z,22.90
2022-11-23T04:57:20.159Z,22.83
2022-11-23T04:59:51.032Z,22.25
2022-11-23T05:02:18.798Z,21.95
2022-11-23T05:04:53.744Z,22.10
2022-11-23T05:07:25.734Z,21.50
2022-11-23T05:09:57.903Z,21.02
2022-11-23T05:12:26.798Z,20.90
2022-11-23T05:14:54.427Z,20.92
2022-11-23T05:17:27.931Z,21.02
2022-11-23T05:19:57.305Z,22.27
2022-11-23T05:22:25.682Z,22.33
2022-11-23T05:24:54.218Z,21.23
2022-11-23T05:27:24.694Z,20.67
2022-11-23T05:29:52.339Z,20.92
2022-11-23T05:32:20.061Z,21.25
2022-11-23T05:34:48.430Z,21.20
2022-11-23T05:37:17.841Z,21.50
2022-11-23T05:39:54.238Z,20.00
2022-11-23T05:42:22.880Z,20.95
2022-11-23T05:44:56.143Z,20.58
2022-11-23T05:47:32.813Z,20.48
2022-11-23T05:50:00.900Z,20.52
2022-11-23T05:52:31.787Z,21.05
2022-11-23T05:54:59.399Z,21.13
2022-11-23T05:57:27.131Z,21.77
2022-11-23T05:59:55.757Z,20.80
2022-11-23T06:02:29.520Z,21.75
2022-11-23T06:05:01.636Z,21.65
2022-11-23T06:07:40.014Z,21.25
2022-11-23T06:10:12.562Z,22.55
2022-11-23T06:12:45.863Z,21.27
2022-11-23T06:15:16.818Z,22.25
2022-11-23T06:17:46.463Z,20.70
2022-11-23T06:20:18.876Z,20.63
2022-11-23T06:22:56.204Z,20.08
2022-11-23T06:25:26.068Z,20.35
2022-11-23T06:28:05.628Z,20.08
2022-11-23T06:30:42.670Z,20.85
2022-11-23T06:33:10.489Z,22.05
2022-11-23T06:35:55.857Z,21.55
2022-11-23T06:38:26.270Z,21.95
2022-11-23T06:41:04.069Z,22.33
2022-11-23T06:43:32.500Z,21.90
2022-11-23T06:46:07.112Z,21.92
2022-11-23T06:48:39.030Z,20.88
2022-11-23T06:51:08.067Z,22.10
2022-11-23T06:53:38.267Z,21.45
2022-11-23T06:56:08.555Z,22.47
2022-11-23T06:58:37.213Z,21.88
2022-11-23T07:01:10.604Z,22.15
2022-11-23T07:03:54.244Z,22.50
2022-11-23T07:06:27.162Z,22.45
2022-11-23T07:08:58.311Z,22.00
2022-11-23T07:11:44.580Z,22.83
2022-11-23T07:14:12.791Z,23.70
2022-11-23T07:16:43.553Z,24.05
2022-11-23T07:19:11.275Z,23.05
2022-11-23T07:21:38.944Z,24.83
2022-11-23T07:24:06.918Z,23.60
2022-11-23T07:26:35.487Z,24.50
2022-11-23T07:29:05.247Z,24.27
2022-11-23T07:31:33.189Z,25.60
2022-11-23T07:34:01.661Z,24.27
2022-11-23T07:36:30.045Z,25.50
2022-11-23T07:38:57.710Z,25.33
2022-11-23T07:41:27.523Z,24.95
2022-11-23T07:44:07.791Z,24.50
2022-11-23T07:46:35.488Z,25.65
2022-11-23T07:49:03.437Z,25.17
2022-11-23T07:51:31.547Z,25.77
2022-11-23T07:53:59.156Z,25.35
2022-11-23T07:56:27.114Z,26.30
2022-11-23T07:58:55.215Z,25.20
2022-11-23T08:01:23.136Z,24.98
2022-11-23T08:03:51.029Z,24.52
2022-11-23T08:06:18.762Z,25.83
2022-11-23T08:08:46.460Z,25.30
2022-11-23T08:11:18.910Z,24.10
2022-11-23T08:13:46.570Z,24.65
2022-11-23T08:16:14.191Z,25.48
2022-11-23T08:18:41.829Z,23.60
2022-11-23T08:21:09.484Z,23.67
2022-11-23T08:23:37.222Z,24.75
2022-11-23T08:26:10.350Z,25.10
2022-11-23T08:28:40.988Z,25.50
2022-11-23T08:31:11.367Z,24.33
2022-11-23T08:33:39.871Z,25.75
2022-11-23T08:36:08.484Z,24.48
2022-11-23T08:38:36.536Z,25.10
2022-11-23T08:41:05.749Z,24.52
2022-11-23T08:43:33.676Z,25.25
2022-11-23T08:46:06.701Z,23.88
2022-11-23T08:48:37.093Z,24.58
2022-11-23T08:51:05.015Z,23.75
2022-11-23T08:53:32.697Z,22.98
2022-11-23T08:56:07.563Z,23.08
2022-11-23T08:58:37.026Z,22.20
2022-11-23T09:01:15.029Z,23.23
2022-11-23T09:03:43.333Z,21.23
2022-11-23T09:06:11.823Z,21.90
2022-11-23T09:08:39.541Z,21.83
2022-11-23T09:11:10.481Z,22.02
2022-11-23T09:13:38.776Z,22.83
2022-11-23T09:16:07.775Z,23.17
2022-11-23T09:18:36.818Z,22.92
2022-11-23T09:21:05.727Z,22.73
2022-11-23T09:23:33.644Z,21.67
2022-11-23T09:26:02.782Z,22.92
2022-11-23T09:28:30.911Z,22.58
2022-11-23T09:30:58.759Z,22.75
2022-11-23T09:33:26.452Z,22.08
2022-11-23T09:36:01.846Z,22.23
2022-11-23T09:38:54.640Z,21.80
2022-11-23T09:41:26.522Z,22.05
2022-11-23T09:44:19.552Z,22.38
2022-11-23T09:46:59.273Z,21.70
2022-11-23T09:49:39.285Z,21.67
2022-11-23T09:52:16.954Z,23.27
2022-11-23T09:54:46.553Z,22.17
2022-11-23T09:57:22.036Z,22.58
2022-11-23T09:59:57.528Z,23.02
2022-11-23T10:02:29.112Z,21.25
2022-11-23T10:05:00.068Z,22.13
2022-11-23T10:08:04.940Z,22.15
2022-11-23T10:10:49.027Z,20.75
2022-11-23T10:13:38.498Z,21.52
2022-11-23T10:16:18.680Z,21.67
2022-11-23T10:19:14.043Z,21.73
2022-11-23T10:22:38.730Z,21.70
2022-11-23T10:25:16.369Z,22.45
2022-11-23T10:27:47.864Z,21.60
2022-11-23T10:30:17.435Z,20.92
2022-11-23T10:32:52.500Z,20.60
2022-11-23T10:35:34.417Z,19.88
2022-11-23T10:38:19.842Z,21.73
2022-11-23T10:41:26.387Z,22.10
2022-11-23T10:44:31.089Z,21.60
2022-11-23T10:47:00.332Z,21.98
2022-11-23T10:49:30.880Z,21.67
2022-11-23T10:52:30.690Z,21.25
2022-11-23T10:55:01.852Z,22.08
2022-11-23T10:57:37.192Z,21.92
2022-11-23T11:00:17.273Z,22.50
2022-11-23T11:02:50.786Z,21.73
2022-11-23T11:05:53.463Z,22.67
2022-11-23T11:08:19.587Z,22.50
2022-11-23T11:10:50.288Z,22.55
2022-11-23T11:13:40.856Z,20.73
2022-11-23T11:16:32.955Z,21.50
2022-11-23T11:19:22.419Z,20.80
2022-11-23T11:21:50.184Z,20.45
2022-11-23T11:24:28.881Z,21.70
2022-11-23T11:27:14.493Z,21.95
2022-11-23T11:29:44.850Z,19.40
2022-11-23T11:32:23.862Z,17.77
2022-11-23T11:35:10.775Z,19.42
2022-11-23T11:37:47.635Z,19.17
2022-11-23T11:40:40.185Z,19.08
2022-11-23T11:43:16.221Z,19.75
2022-11-23T11:46:21.436Z,19.33
2022-11-23T11:48:43.225Z,19.70
2022-11-23T11:51:22.688Z,18.88
2022-11-23T11:53:59.947Z,21.73
2022-11-23T11:56:42.011Z,19.17
2022-11-23T11:59:10.122Z,20.10
2022-11-23T12:01:51.674Z,20.55
2022-11-23T12:04:27.964Z,20.08
2022-11-23T12:07:06.267Z,20.30
2022-11-23T12:09:41.159Z,19.20
2022-11-23T12:12:16.891Z,19.40
2022-11-23T12:14:46.887Z,18.33
2022-11-23T12:17:55.963Z,19.52
2022-11-23T12:20:26.758Z,19.02
2022-11-23T12:23:03.287Z,17.15
2022-11-23T12:25:39.135Z,18.80
2022-11-23T12:28:16.715Z,19.65
2022-11-23T12:30:59.639Z,18.73
2022-11-23T12:33:36.119Z,17.35
2022-11-23T12:36:23.860Z,17.52
2022-11-23T12:39:01.406Z,17.17
2022-11-23T12:41:50.502Z,15.48
2022-11-23T12:44:39.488Z,17.10
2022-11-23T12:47:33.770Z,16.73
2022-11-23T12:50:04.252Z,18.25
2022-11-23T12:53:03.221Z,17.40
2022-11-23T12:55:40.661Z,17.70
2022-11-23T12:58:21.772Z,18.10
2022-11-23T13:03:40.770Z,19.42
2022-11-23T13:06:22.069Z,17.95
2022-11-23T13:09:17.506Z,18.63
2022-11-23T13:11:51.131Z,17.98
2022-11-23T13:14:57.630Z,17.38
2022-11-23T13:17:33.362Z,17.02
2022-11-23T13:20:26.739Z,18.33
2022-11-23T13:22:58.486Z,16.98
2022-11-23T13:25:28.863Z,18.20
2022-11-23T13:27:59.745Z,16.77
2022-11-23T13:31:13.439Z,17.17
2022-11-23T13:33:23.641Z,17.27
2022-11-23T13:35:56.551Z,17.17
2022-11-23T13:40:54.003Z,17.67
2022-11-23T13:43:23.408Z,18.38
2022-11-23T13:46:10.025Z,18.63
2022-11-23T13:49:01.064Z,16.98
2022-11-23T13:51:32.022Z,18.42
2022-11-23T13:54:07.296Z,19.30
2022-11-23T13:56:43.530Z,18.88
2022-11-23T13:59:40.652Z,18.23
2022-11-23T14:02:08.334Z,18.00
2022-11-23T14:04:43.809Z,17.23
2022-11-23T14:07:32.311Z,17.23
2022-11-23T14:10:09.854Z,17.42
2022-11-23T14:12:58.868Z,17.90
2022-11-23T14:15:33.510Z,16.90
2022-11-23T14:18:21.373Z,17.98
2022-11-23T14:20:54.732Z,17.58
2022-11-23T14:23:51.021Z,17.90
2022-11-23T14:26:27.405Z,17.38
2022-11-23T14:29:20.404Z,18.77
2022-11-23T14:32:10.049Z,18.13
2022-11-23T14:35:06.652Z,18.65
2022-11-23T14:37:56.252Z,17.98
2022-11-23T14:40:54.850Z,18.77
2022-11-23T14:43:23.004Z,18.52
2022-11-23T14:45:50.628Z,19.63
2022-11-23T14:48:33.927Z,19.65
2022-11-23T14:51:05.782Z,19.30
2022-11-23T14:53:43.922Z,18.20
2022-11-23T14:56:41.530Z,18.65
2022-11-23T14:59:19.923Z,19.45
2022-11-23T15:01:51.526Z,19.00
2022-11-23T15:04:35.473Z,19.15
2022-11-23T15:07:25.332Z,19.75
2022-11-23T15:09:59.091Z,19.30
2022-11-23T15:12:29.998Z,19.77
2022-11-23T15:14:58.639Z,19.48
2022-11-23T15:17:26.924Z,19.52
2022-11-23T15:20:01.755Z,18.55
2022-11-23T15:22:31.348Z,18.30
2022-11-23T15:25:13.480Z,18.02
2022-11-23T15:27:42.611Z,17.27
2022-11-23T15:30:18.131Z,18.80
2022-11-23T15:32:56.688Z,19.33
2022-11-23T15:35:34.921Z,18.85
2022-11-23T15:38:04.856Z,19.10
2022-11-23T15:40:38.081Z,18.48
2022-11-23T15:43:05.780Z,20.13
2022-11-23T15:45:39.951Z,19.08
2022-11-23T15:48:31.099Z,18.75
2022-11-23T15:51:01.487Z,19.42
2022-11-23T15:53:40.766Z,18.80
2022-11-23T15:56:22.062Z,19.05
2022-11-23T15:58:51.730Z,19.33
2022-11-23T16:01:20.541Z,20.17
2022-11-23T16:04:04.885Z,20.58
2022-11-23T16:06:32.645Z,19.75
2022-11-23T16:09:00.814Z,20.23
2022-11-23T16:11:34.130Z,20.27
2022-11-23T16:14:13.902Z,20.17
2022-11-23T16:16:46.015Z,20.60
2022-11-23T16:19:35.282Z,21.08
2022-11-23T16:22:07.192Z,20.08
2022-11-23T16:24:36.681Z,20.00
2022-11-23T16:27:16.073Z,20.17
2022-11-23T16:29:44.653Z,20.55
2022-11-23T16:32:27.683Z,19.20
2022-11-23T16:35:00.428Z,19.80
2022-11-23T16:37:29.226Z,20.23
2022-11-23T16:39:56.974Z,20.10
2022-11-23T16:42:26.515Z,19.92
2022-11-23T16:44:54.365Z,20.60
2022-11-23T16:47:25.172Z,19.60
2022-11-23T16:49:54.661Z,19.83
2022-11-23T16:52:23.288Z,19.08
2022-11-23T16:54:52.917Z,19.38
2022-11-23T16:57:29.258Z,19.52
2022-11-23T16:59:59.762Z,20.38
2022-11-23T17:02:29.611Z,20.77
2022-11-23T17:04:59.416Z,20.05
2022-11-23T17:07:27.411Z,20.35
2022-11-23T17:09:56.783Z,20.27
2022-11-23T17:12:24.837Z,20.10
2022-11-23T17:15:03.963Z,20.00
2022-11-23T17:17:31.759Z,21.40
2022-11-23T17:20:03.870Z,20.77
2022-11-23T17:22:32.301Z,21.58
2022-11-23T17:25:02.413Z,21.75
2022-11-23T17:27:34.025Z,21.35
2022-11-23T17:30:07.256Z,20.20
2022-11-23T17:32:35.005Z,20.27
2022-11-23T17:35:03.409Z,20.00
2022-11-23T17:37:31.338Z,19.77
2022-11-23T17:40:01.863Z,20.02
2022-11-23T17:42:31.453Z,20.33
2022-11-23T17:45:00.595Z,19.70
2022-11-23T17:47:30.917Z,20.13
2022-11-23T17:49:59.086Z,21.23
2022-11-23T17:52:27.403Z,21.38
2022-11-23T17:54:55.012Z,21.67
2022-11-23T17:57:24.990Z,21.73
2022-11-23T17:59:54.019Z,21.42
2022-11-23T18:02:21.712Z,21.33
2022-11-23T18:04:49.488Z,20.42
2022-11-23T18:07:17.535Z,20.55
2022-11-23T18:09:45.197Z,20.13
2022-11-23T18:12:12.892Z,20.50
2022-11-23T18:14:40.578Z,20.55
2022-11-23T18:17:08.219Z,20.80
2022-11-23T18:19:35.869Z,20.70
2022-11-23T18:22:03.560Z,21.33
2022-11-23T18:24:31.283Z,21.05
2022-11-23T18:26:58.972Z,21.15
2022-11-23T18:29:26.604Z,21.23
2022-11-23T18:31:54.225Z,21.23
2022-11-23T18:34:21.838Z,21.40
2022-11-23T18:36:49.449Z,21.48
2022-11-23T18:39:17.056Z,20.95
2022-11-23T18:41:44.765Z,20.90
2022-11-23T18:44:13.771Z,21.10
2022-11-23T18:46:46.242Z,22.15
2022-11-23T18:49:14.331Z,21.70
2022-11-23T18:51:41.971Z,20.90
2022-11-23T18:54:09.567Z,20.50
2022-11-23T18:56:37.187Z,19.38
2022-11-23T18:59:07.173Z,19.05
2022-11-23T19:01:35.275Z,19.48
2022-11-23T19:04:03.081Z,19.48
2022-11-23T19:06:30.788Z,20.15
2022-11-23T19:08:58.397Z,19.67
2022-11-23T19:11:28.709Z,19.52
2022-11-23T19:13:58.748Z,19.88
2022-11-23T19:16:30.271Z,19.53
2022-11-23T19:19:00.737Z,19.17
2022-11-23T19:21:31.278Z,20.17
2022-11-23T19:24:00.319Z,20.15
2022-11-23T19:26:29.097Z,21.40
2022-11-23T19:28:57.531Z,20.15
2022-11-23T19:31:30.531Z,20.30
2022-11-23T19:34:03.703Z,20.92
2022-11-23T19:36:33.477Z,21.17
2022-11-23T19:39:04.281Z,20.92
2022-11-23T19:41:32.608Z,21.90
2022-11-23T19:44:01.812Z,21.58
2022-11-23T19:46:31.247Z,21.73
2022-11-23T19:48:59.666Z,22.30
2022-11-23T19:51:27.947Z,22.25
2022-11-23T19:53:57.787Z,22.00
2022-11-23T19:56:27.746Z,21.50
2022-11-23T19:58:58.326Z,21.25
2022-11-23T20:01:28.436Z,21.75
2022-11-23T20:04:07.967Z,22.52
2022-11-23T20:06:38.878Z,22.70
2022-11-23T20:09:10.952Z,22.95
2022-11-23T20:11:40.798Z,23.33
2022-11-23T20:14:11.881Z,23.10
2022-11-23T20:16:39.755Z,22.48
2022-11-23T20:19:09.437Z,22.58
2022-11-23T20:21:38.911Z,22.45
2022-11-23T20:24:15.805Z,22.30
2022-11-23T20:26:43.514Z,22.38
2022-11-23T20:29:11.863Z,21.70
2022-11-23T20:31:39.865Z,22.00
2022-11-23T20:34:09.577Z,22.35
2022-11-23T20:36:40.839Z,22.23
2022-11-23T20:39:11.174Z,21.35
2022-11-23T20:41:39.846Z,20.80
2022-11-23T20:44:12.056Z,21.17
2022-11-23T20:49:30.202Z,22.38
2022-11-23T20:51:59.040Z,22.33
2022-11-23T20:54:27.105Z,23.08
2022-11-23T20:56:54.890Z,22.88
2022-11-23T20:59:24.096Z,22.20
2022-11-23T21:01:52.286Z,23.65
2022-11-23T21:04:20.018Z,23.55
2022-11-23T21:06:47.878Z,23.25
2022-11-23T21:09:17.232Z,23.05
2022-11-23T21:12:03.501Z,23.60
2022-11-23T21:14:33.143Z,23.33
2022-11-23T21:17:01.574Z,23.77
2022-11-23T21:19:31.736Z,23.00
2022-11-23T21:22:02.879Z,22.58
2022-11-23T21:24:30.624Z,22.17
2022-11-23T21:26:58.426Z,22.08
2022-11-23T21:29:26.392Z,23.10
2022-11-23T21:31:54.291Z,22.67
2022-11-23T21:34:24.612Z,23.02
2022-11-23T21:36:53.512Z,22.80
2022-11-23T21:39:22.199Z,23.67
2022-11-23T21:41:51.717Z,22.95
2022-11-23T21:44:20.682Z,21.63
2022-11-23T21:46:48.813Z,22.15
2022-11-23T21:49:16.660Z,22.75
2022-11-23T21:51:45.889Z,22.98
2022-11-23T21:54:16.035Z,22.52
2022-11-23T21:56:45.658Z,20.75
2022-11-23T21:59:13.678Z,23.25
2022-11-23T22:01:42.266Z,22.45
2022-11-23T22:04:15.767Z,21.75
2022-11-23T22:06:45.460Z,23.05
2022-11-23T22:09:14.057Z,22.70
2022-11-23T22:11:43.454Z,22.33
2022-11-23T22:14:15.709Z,22.52
2022-11-23T22:16:45.748Z,22.55
2022-11-23T22:19:15.027Z,20.60
2022-11-23T22:21:45.027Z,21.63
2022-11-23T22:24:15.395Z,21.08
2022-11-23T22:26:44.173Z,20.30
2022-11-23T22:29:12.669Z,20.70
2022-11-23T22:31:40.907Z,20.92
2022-11-23T22:34:14.393Z,20.30
2022-11-23T22:36:42.429Z,20.02
2022-11-23T22:39:10.571Z,19.75
2022-11-23T22:41:38.643Z,19.13
2022-11-23T22:44:08.048Z,20.15
2022-11-23T22:46:37.175Z,19.77
2022-11-23T22:49:05.234Z,20.17
2022-11-23T22:51:33.297Z,19.48
2022-11-23T22:54:01.892Z,19.42
2022-11-23T22:56:30.939Z,19.02
2022-11-23T22:58:59.168Z,18.67
2022-11-23T23:01:30.341Z,18.90
2022-11-23T23:04:00.689Z,18.73
2022-11-23T23:06:30.807Z,18.83
2022-11-23T23:09:00.398Z,18.90
2022-11-23T23:11:30.758Z,18.33
2022-11-23T23:13:59.214Z,18.17
2022-11-23T23:16:27.170Z,18.20
2022-11-23T23:18:57.099Z,18.15
2022-11-23T23:21:25.832Z,18.75
2022-11-23T23:23:55.702Z,17.77
2022-11-23T23:26:25.032Z,19.05
2022-11-23T23:28:57.182Z,18.13
2022-11-23T23:31:25.325Z,18.50
2022-11-23T23:33:57.285Z,18.80
2022-11-23T23:36:25.155Z,18.40
2022-11-23T23:38:53.359Z,18.27
2022-11-23T23:41:21.347Z,18.65
2022-11-23T23:43:49.219Z,18.50
2022-11-23T23:46:17.511Z,18.60
2022-11-23T23:48:45.654Z,18.35
2022-11-23T23:51:16.000Z,17.95
2022-11-23T23:53:44.088Z,17.33
2022-11-23T23:56:17.606Z,18.98
2022-11-23T23:58:45.688Z,19.60
